sensor_id;sensor_type;location;lat;lon;timestamp;P1;durP1;ratioP1;P2;durP2;ratioP2
92;SDS011;16232;48.800;9.002;2023-02-28T00:01:35;2.70;;;2.13;;
92;SDS011;16232;48.800;9.002;2023-02-28T00:04:03;4.30;;;2.60;;
92;SDS011;16232;48.800;9.002;2023-02-28T00:06:30;3.10;;;2.30;;
92;SDS011;16232;48.800;9.002;2023-02-28T00:09:01;4.70;;;2.37;;
92;SDS011;16232;48.800;9.002;2023-02-28T00:11:58;4.27;;;2.27;;
92;SDS011;16232;48.800;9.002;2023-02-28T00:14:35;4.23;;;2.73;;
92;SDS011;16232;48.800;9.002;2023-02-28T00:17:04;4.20;;;2.57;;
92;SDS011;16232;48.800;9.002;2023-02-28T00:19:31;3.13;;;2.65;;
92;SDS011;16232;48.800;9.002;2023-02-28T00:21:59;4.25;;;2.45;;
92;SDS011;16232;48.800;9.002;2023-02-28T00:24:27;3.10;;;2.53;;
92;SDS011;16232;48.800;9.002;2023-02-28T00:26:54;3.67;;;2.30;;
92;SDS011;16232;48.800;9.002;2023-02-28T00:29:22;4.97;;;2.57;;
92;SDS011;16232;48.800;9.002;2023-02-28T00:31:49;4.53;;;2.73;;
92;SDS011;16232;48.800;9.002;2023-02-28T00:34:18;2.87;;;2.53;;
92;SDS011;16232;48.800;9.002;2023-02-28T00:36:45;3.63;;;2.70;;
92;SDS011;16232;48.800;9.002;2023-02-28T00:39:15;3.10;;;2.70;;
92;SDS011;16232;48.800;9.002;2023-02-28T00:41:42;4.93;;;2.67;;
92;SDS011;16232;48.800;9.002;2023-02-28T00:44:10;3.13;;;2.60;;
92;SDS011;16232;48.800;9.002;2023-02-28T00:46:37;2.83;;;2.50;;
92;SDS011;16232;48.800;9.002;2023-02-28T00:49:04;4.23;;;3.77;;
92;SDS011;16232;48.800;9.002;2023-02-28T00:51:33;4.90;;;2.87;;
92;SDS011;16232;48.800;9.002;2023-02-28T00:54:01;3.87;;;2.70;;
92;SDS011;16232;48.800;9.002;2023-02-28T00:56:28;4.75;;;2.80;;
92;SDS011;16232;48.800;9.002;2023-02-28T00:58:55;4.10;;;3.20;;
92;SDS011;16232;48.800;9.002;2023-02-28T01:01:23;3.33;;;2.73;;
92;SDS011;16232;48.800;9.002;2023-02-28T01:03:50;3.80;;;2.75;;
92;SDS011;16232;48.800;9.002;2023-02-28T01:06:18;2.85;;;2.60;;
92;SDS011;16232;48.800;9.002;2023-02-28T01:08:46;4.90;;;2.90;;
92;SDS011;16232;48.800;9.002;2023-02-28T01:11:15;4.20;;;2.97;;
92;SDS011;16232;48.800;9.002;2023-02-28T01:13:43;3.20;;;2.90;;
92;SDS011;16232;48.800;9.002;2023-02-28T01:16:10;4.53;;;3.63;;
92;SDS011;16232;48.800;9.002;2023-02-28T01:18:38;4.43;;;3.00;;
92;SDS011;16232;48.800;9.002;2023-02-28T01:21:05;4.53;;;3.53;;
92;SDS011;16232;48.800;9.002;2023-02-28T01:23:33;4.53;;;3.40;;
92;SDS011;16232;48.800;9.002;2023-02-28T01:26:04;3.70;;;2.80;;
92;SDS011;16232;48.800;9.002;2023-02-28T01:28:32;5.97;;;3.53;;
92;SDS011;16232;48.800;9.002;2023-02-28T01:31:00;3.80;;;3.27;;
92;SDS011;16232;48.800;9.002;2023-02-28T01:33:27;4.77;;;3.40;;
92;SDS011;16232;48.800;9.002;2023-02-28T01:35:58;4.47;;;3.30;;
92;SDS011;16232;48.800;9.002;2023-02-28T01:38:25;5.72;;;3.47;;
92;SDS011;16232;48.800;9.002;2023-02-28T01:40:53;3.77;;;3.30;;
92;SDS011;16232;48.800;9.002;2023-02-28T01:43:23;3.97;;;3.50;;
92;SDS011;16232;48.800;9.002;2023-02-28T01:45:51;4.23;;;3.30;;
92;SDS011;16232;48.800;9.002;2023-02-28T01:48:22;5.05;;;3.60;;
92;SDS011;16232;48.800;9.002;2023-02-28T01:50:52;3.83;;;3.40;;
92;SDS011;16232;48.800;9.002;2023-02-28T01:53:21;4.80;;;3.70;;
92;SDS011;16232;48.800;9.002;2023-02-28T01:55:50;6.40;;;3.65;;
92;SDS011;16232;48.800;9.002;2023-02-28T01:58:18;4.70;;;3.33;;
92;SDS011;16232;48.800;9.002;2023-02-28T02:00:47;4.83;;;3.70;;
92;SDS011;16232;48.800;9.002;2023-02-28T02:03:16;6.17;;;3.50;;
92;SDS011;16232;48.800;9.002;2023-02-28T02:05:47;4.40;;;3.80;;
92;SDS011;16232;48.800;9.002;2023-02-28T02:08:16;5.87;;;4.03;;
92;SDS011;16232;48.800;9.002;2023-02-28T02:10:44;4.47;;;3.87;;
92;SDS011;16232;48.800;9.002;2023-02-28T02:13:19;4.03;;;3.60;;
92;SDS011;16232;48.800;9.002;2023-02-28T02:15:53;5.82;;;4.00;;
92;SDS011;16232;48.800;9.002;2023-02-28T02:18:23;5.43;;;4.07;;
92;SDS011;16232;48.800;9.002;2023-02-28T02:35:07;8.00;;;4.30;;
92;SDS011;16232;48.800;9.002;2023-02-28T02:37:40;5.72;;;4.38;;
92;SDS011;16232;48.800;9.002;2023-02-28T02:40:11;9.07;;;5.30;;
92;SDS011;16232;48.800;9.002;2023-02-28T02:42:42;10.77;;;7.77;;
92;SDS011;16232;48.800;9.002;2023-02-28T02:45:12;14.25;;;9.30;;
92;SDS011;16232;48.800;9.002;2023-02-28T02:47:41;8.50;;;5.67;;
92;SDS011;16232;48.800;9.002;2023-02-28T02:50:12;6.47;;;5.20;;
92;SDS011;16232;48.800;9.002;2023-02-28T02:52:42;5.57;;;4.73;;
92;SDS011;16232;48.800;9.002;2023-02-28T02:55:12;6.75;;;4.50;;
92;SDS011;16232;48.800;9.002;2023-02-28T02:57:40;6.10;;;4.73;;
92;SDS011;16232;48.800;9.002;2023-02-28T03:00:10;5.40;;;4.43;;
92;SDS011;16232;48.800;9.002;2023-02-28T03:02:39;7.37;;;4.63;;
92;SDS011;16232;48.800;9.002;2023-02-28T03:05:09;7.03;;;4.70;;
92;SDS011;16232;48.800;9.002;2023-02-28T03:07:41;5.23;;;4.40;;
92;SDS011;16232;48.800;9.002;2023-02-28T03:10:28;5.57;;;4.57;;
92;SDS011;16232;48.800;9.002;2023-02-28T03:13:00;8.13;;;5.00;;
92;SDS011;16232;48.800;9.002;2023-02-28T03:15:30;5.45;;;4.10;;
92;SDS011;16232;48.800;9.002;2023-02-28T03:18:01;5.03;;;4.53;;
92;SDS011;16232;48.800;9.002;2023-02-28T03:20:33;4.73;;;4.23;;
92;SDS011;16232;48.800;9.002;2023-02-28T03:23:06;5.30;;;4.80;;
92;SDS011;16232;48.800;9.002;2023-02-28T03:25:37;6.17;;;4.40;;
92;SDS011;16232;48.800;9.002;2023-02-28T03:28:10;5.93;;;4.70;;
92;SDS011;16232;48.800;9.002;2023-02-28T03:30:41;5.67;;;4.17;;
92;SDS011;16232;48.800;9.002;2023-02-28T03:33:10;7.43;;;4.47;;
92;SDS011;16232;48.800;9.002;2023-02-28T03:35:39;4.50;;;3.80;;
92;SDS011;16232;48.800;9.002;2023-02-28T03:38:12;6.20;;;4.63;;
92;SDS011;16232;48.800;9.002;2023-02-28T03:40:42;4.63;;;4.20;;
92;SDS011;16232;48.800;9.002;2023-02-28T03:43:11;5.10;;;4.57;;
92;SDS011;16232;48.800;9.002;2023-02-28T03:45:40;4.87;;;4.17;;
92;SDS011;16232;48.800;9.002;2023-02-28T03:48:08;6.43;;;4.53;;
92;SDS011;16232;48.800;9.002;2023-02-28T03:50:39;5.23;;;4.17;;
92;SDS011;16232;48.800;9.002;2023-02-28T03:53:07;6.27;;;4.90;;
92;SDS011;16232;48.800;9.002;2023-02-28T03:55:37;5.33;;;4.50;;
92;SDS011;16232;48.800;9.002;2023-02-28T03:58:11;6.57;;;4.50;;
92;SDS011;16232;48.800;9.002;2023-02-28T04:00:40;5.80;;;4.63;;
92;SDS011;16232;48.800;9.002;2023-02-28T04:03:10;6.00;;;5.10;;
92;SDS011;16232;48.800;9.002;2023-02-28T04:05:44;5.97;;;4.53;;
92;SDS011;16232;48.800;9.002;2023-02-28T04:08:13;5.43;;;4.13;;
92;SDS011;16232;48.800;9.002;2023-02-28T04:10:42;8.50;;;4.43;;
92;SDS011;16232;48.800;9.002;2023-02-28T04:13:11;5.90;;;5.00;;
92;SDS011;16232;48.800;9.002;2023-02-28T04:15:38;6.47;;;4.53;;
92;SDS011;16232;48.800;9.002;2023-02-28T04:18:06;4.80;;;4.37;;
92;SDS011;16232;48.800;9.002;2023-02-28T04:20:33;4.63;;;4.20;;
92;SDS011;16232;48.800;9.002;2023-02-28T04:23:01;6.20;;;4.30;;
92;SDS011;16232;48.800;9.002;2023-02-28T04:25:28;5.87;;;5.27;;
92;SDS011;16232;48.800;9.002;2023-02-28T04:27:57;5.20;;;4.70;;
92;SDS011;16232;48.800;9.002;2023-02-28T04:30:24;6.23;;;4.70;;
92;SDS011;16232;48.800;9.002;2023-02-28T04:32:52;5.57;;;4.57;;
92;SDS011;16232;48.800;9.002;2023-02-28T04:35:19;6.77;;;5.73;;
92;SDS011;16232;48.800;9.002;2023-02-28T04:37:47;6.47;;;5.80;;
92;SDS011;16232;48.800;9.002;2023-02-28T04:40:14;6.63;;;5.07;;
92;SDS011;16232;48.800;9.002;2023-02-28T04:42:41;7.10;;;5.10;;
92;SDS011;16232;48.800;9.002;2023-02-28T04:45:10;6.63;;;5.57;;
92;SDS011;16232;48.800;9.002;2023-02-28T04:47:38;7.47;;;5.37;;
92;SDS011;16232;48.800;9.002;2023-02-28T04:50:06;7.93;;;5.50;;
92;SDS011;16232;48.800;9.002;2023-02-28T04:52:33;6.63;;;5.30;;
92;SDS011;16232;48.800;9.002;2023-02-28T04:55:01;8.30;;;6.07;;
92;SDS011;16232;48.800;9.002;2023-02-28T04:57:29;7.13;;;5.13;;
92;SDS011;16232;48.800;9.002;2023-02-28T04:59:57;7.23;;;5.57;;
92;SDS011;16232;48.800;9.002;2023-02-28T05:02:25;8.90;;;5.53;;
92;SDS011;16232;48.800;9.002;2023-02-28T05:04:53;8.07;;;5.23;;
92;SDS011;16232;48.800;9.002;2023-02-28T05:07:20;5.97;;;5.33;;
92;SDS011;16232;48.800;9.002;2023-02-28T05:09:48;7.53;;;5.20;;
92;SDS011;16232;48.800;9.002;2023-02-28T05:12:15;6.17;;;5.10;;
92;SDS011;16232;48.800;9.002;2023-02-28T05:14:42;5.60;;;4.87;;
92;SDS011;16232;48.800;9.002;2023-02-28T05:17:10;6.50;;;5.40;;
92;SDS011;16232;48.800;9.002;2023-02-28T05:19:39;6.90;;;5.83;;
92;SDS011;16232;48.800;9.002;2023-02-28T05:22:11;7.33;;;4.83;;
92;SDS011;16232;48.800;9.002;2023-02-28T05:24:39;6.97;;;4.93;;
92;SDS011;16232;48.800;9.002;2023-02-28T05:27:09;5.93;;;5.33;;
92;SDS011;16232;48.800;9.002;2023-02-28T05:29:36;7.10;;;5.43;;
92;SDS011;16232;48.800;9.002;2023-02-28T05:32:08;6.70;;;4.97;;
92;SDS011;16232;48.800;9.002;2023-02-28T05:34:36;6.77;;;5.33;;
92;SDS011;16232;48.800;9.002;2023-02-28T05:37:05;7.00;;;6.03;;
92;SDS011;16232;48.800;9.002;2023-02-28T05:39:33;7.57;;;5.43;;
92;SDS011;16232;48.800;9.002;2023-02-28T05:42:00;7.33;;;5.83;;
92;SDS011;16232;48.800;9.002;2023-02-28T05:44:28;7.03;;;6.03;;
92;SDS011;16232;48.800;9.002;2023-02-28T05:46:55;7.63;;;5.97;;
92;SDS011;16232;48.800;9.002;2023-02-28T05:49:23;6.20;;;4.90;;
92;SDS011;16232;48.800;9.002;2023-02-28T05:51:50;7.47;;;5.73;;
92;SDS011;16232;48.800;9.002;2023-02-28T05:54:19;6.87;;;5.60;;
92;SDS011;16232;48.800;9.002;2023-02-28T05:56:46;6.70;;;5.13;;
92;SDS011;16232;48.800;9.002;2023-02-28T05:59:17;6.37;;;5.33;;
92;SDS011;16232;48.800;9.002;2023-02-28T06:01:45;8.10;;;6.40;;
92;SDS011;16232;48.800;9.002;2023-02-28T06:04:14;8.30;;;5.60;;
92;SDS011;16232;48.800;9.002;2023-02-28T06:06:44;6.47;;;5.60;;
92;SDS011;16232;48.800;9.002;2023-02-28T06:09:11;8.10;;;6.07;;
92;SDS011;16232;48.800;9.002;2023-02-28T06:11:40;8.47;;;6.13;;
92;SDS011;16232;48.800;9.002;2023-02-28T06:14:09;10.67;;;6.17;;
92;SDS011;16232;48.800;9.002;2023-02-28T06:16:40;7.83;;;6.00;;
92;SDS011;16232;48.800;9.002;2023-02-28T06:19:08;7.80;;;6.00;;
92;SDS011;16232;48.800;9.002;2023-02-28T06:21:36;8.33;;;5.83;;
92;SDS011;16232;48.800;9.002;2023-02-28T06:24:03;8.87;;;6.67;;
92;SDS011;16232;48.800;9.002;2023-02-28T06:26:31;6.80;;;6.10;;
92;SDS011;16232;48.800;9.002;2023-02-28T06:29:00;9.40;;;6.30;;
92;SDS011;16232;48.800;9.002;2023-02-28T06:31:28;7.20;;;5.93;;
92;SDS011;16232;48.800;9.002;2023-02-28T06:33:55;10.57;;;6.40;;
92;SDS011;16232;48.800;9.002;2023-02-28T06:36:23;8.10;;;6.10;;
92;SDS011;16232;48.800;9.002;2023-02-28T06:38:50;11.10;;;7.80;;
92;SDS011;16232;48.800;9.002;2023-02-28T06:41:20;12.83;;;8.47;;
92;SDS011;16232;48.800;9.002;2023-02-28T06:43:47;10.23;;;7.53;;
92;SDS011;16232;48.800;9.002;2023-02-28T06:46:16;8.00;;;6.43;;
92;SDS011;16232;48.800;9.002;2023-02-28T06:48:44;7.73;;;6.37;;
92;SDS011;16232;48.800;9.002;2023-02-28T06:51:12;8.00;;;6.57;;
92;SDS011;16232;48.800;9.002;2023-02-28T06:53:40;7.90;;;5.90;;
92;SDS011;16232;48.800;9.002;2023-02-28T06:56:08;8.33;;;6.67;;
92;SDS011;16232;48.800;9.002;2023-02-28T06:58:36;7.30;;;6.03;;
92;SDS011;16232;48.800;9.002;2023-02-28T07:01:05;8.47;;;6.33;;
92;SDS011;16232;48.800;9.002;2023-02-28T07:03:34;7.70;;;6.50;;
92;SDS011;16232;48.800;9.002;2023-02-28T07:06:02;9.87;;;6.63;;
92;SDS011;16232;48.800;9.002;2023-02-28T07:08:29;9.17;;;6.50;;
92;SDS011;16232;48.800;9.002;2023-02-28T07:10:58;8.03;;;6.60;;
92;SDS011;16232;48.800;9.002;2023-02-28T07:13:25;10.53;;;6.90;;
92;SDS011;16232;48.800;9.002;2023-02-28T07:15:53;7.90;;;6.73;;
92;SDS011;16232;48.800;9.002;2023-02-28T07:18:21;10.03;;;6.47;;
92;SDS011;16232;48.800;9.002;2023-02-28T07:20:50;9.10;;;6.93;;
92;SDS011;16232;48.800;9.002;2023-02-28T07:23:17;7.83;;;6.50;;
92;SDS011;16232;48.800;9.002;2023-02-28T07:25:45;9.20;;;6.77;;
92;SDS011;16232;48.800;9.002;2023-02-28T07:28:13;10.80;;;7.13;;
92;SDS011;16232;48.800;9.002;2023-02-28T07:30:41;8.27;;;6.77;;
92;SDS011;16232;48.800;9.002;2023-02-28T07:33:08;8.80;;;6.47;;
92;SDS011;16232;48.800;9.002;2023-02-28T07:35:35;10.03;;;7.37;;
92;SDS011;16232;48.800;9.002;2023-02-28T07:38:04;10.93;;;7.37;;
92;SDS011;16232;48.800;9.002;2023-02-28T07:40:32;9.73;;;7.60;;
92;SDS011;16232;48.800;9.002;2023-02-28T07:43:00;10.97;;;6.50;;
92;SDS011;16232;48.800;9.002;2023-02-28T07:45:27;9.13;;;6.73;;
92;SDS011;16232;48.800;9.002;2023-02-28T07:47:55;7.77;;;6.43;;
92;SDS011;16232;48.800;9.002;2023-02-28T07:50:23;9.20;;;6.53;;
92;SDS011;16232;48.800;9.002;2023-02-28T07:52:50;9.10;;;7.30;;
92;SDS011;16232;48.800;9.002;2023-02-28T07:55:19;7.93;;;6.37;;
92;SDS011;16232;48.800;9.002;2023-02-28T07:57:47;8.00;;;7.20;;
92;SDS011;16232;48.800;9.002;2023-02-28T08:00:14;8.30;;;6.43;;
92;SDS011;16232;48.800;9.002;2023-02-28T08:02:41;8.63;;;6.47;;
92;SDS011;16232;48.800;9.002;2023-02-28T08:05:09;8.97;;;7.00;;
92;SDS011;16232;48.800;9.002;2023-02-28T08:07:36;9.73;;;6.77;;
92;SDS011;16232;48.800;9.002;2023-02-28T08:10:04;9.97;;;7.00;;
92;SDS011;16232;48.800;9.002;2023-02-28T08:12:33;10.67;;;7.00;;
92;SDS011;16232;48.800;9.002;2023-02-28T08:15:01;8.37;;;6.27;;
92;SDS011;16232;48.800;9.002;2023-02-28T08:17:28;10.23;;;7.63;;
92;SDS011;16232;48.800;9.002;2023-02-28T08:19:55;9.70;;;6.93;;
92;SDS011;16232;48.800;9.002;2023-02-28T08:22:23;8.90;;;6.93;;
92;SDS011;16232;48.800;9.002;2023-02-28T08:24:50;11.40;;;7.40;;
92;SDS011;16232;48.800;9.002;2023-02-28T08:27:18;8.70;;;7.60;;
92;SDS011;16232;48.800;9.002;2023-02-28T08:29:46;9.63;;;6.80;;
92;SDS011;16232;48.800;9.002;2023-02-28T08:32:14;9.17;;;6.90;;
92;SDS011;16232;48.800;9.002;2023-02-28T08:34:41;11.00;;;7.17;;
92;SDS011;16232;48.800;9.002;2023-02-28T08:37:09;13.13;;;7.13;;
92;SDS011;16232;48.800;9.002;2023-02-28T08:39:36;12.90;;;7.03;;
92;SDS011;16232;48.800;9.002;2023-02-28T08:42:04;11.67;;;7.43;;
92;SDS011;16232;48.800;9.002;2023-02-28T08:44:31;11.97;;;8.17;;
92;SDS011;16232;48.800;9.002;2023-02-28T08:47:00;10.37;;;7.57;;
92;SDS011;16232;48.800;9.002;2023-02-28T08:49:28;10.53;;;7.80;;
92;SDS011;16232;48.800;9.002;2023-02-28T08:51:55;9.33;;;7.33;;
92;SDS011;16232;48.800;9.002;2023-02-28T08:54:22;8.63;;;7.57;;
92;SDS011;16232;48.800;9.002;2023-02-28T08:56:50;11.63;;;7.70;;
92;SDS011;16232;48.800;9.002;2023-02-28T08:59:17;9.30;;;7.63;;
92;SDS011;16232;48.800;9.002;2023-02-28T09:01:45;10.10;;;7.57;;
92;SDS011;16232;48.800;9.002;2023-02-28T09:04:13;8.53;;;7.47;;
92;SDS011;16232;48.800;9.002;2023-02-28T09:06:41;10.33;;;7.20;;
92;SDS011;16232;48.800;9.002;2023-02-28T09:09:09;10.33;;;8.37;;
92;SDS011;16232;48.800;9.002;2023-02-28T09:11:37;8.93;;;7.53;;
92;SDS011;16232;48.800;9.002;2023-02-28T09:14:04;8.43;;;7.47;;
92;SDS011;16232;48.800;9.002;2023-02-28T09:16:32;10.57;;;8.17;;
92;SDS011;16232;48.800;9.002;2023-02-28T09:19:00;11.63;;;8.07;;
92;SDS011;16232;48.800;9.002;2023-02-28T09:21:29;9.90;;;7.40;;
92;SDS011;16232;48.800;9.002;2023-02-28T09:23:56;9.80;;;7.57;;
92;SDS011;16232;48.800;9.002;2023-02-28T09:26:24;9.80;;;8.07;;
92;SDS011;16232;48.800;9.002;2023-02-28T09:28:53;11.93;;;7.97;;
92;SDS011;16232;48.800;9.002;2023-02-28T09:31:21;10.17;;;8.20;;
92;SDS011;16232;48.800;9.002;2023-02-28T09:33:49;11.20;;;8.37;;
92;SDS011;16232;48.800;9.002;2023-02-28T09:36:16;9.50;;;8.03;;
92;SDS011;16232;48.800;9.002;2023-02-28T09:38:45;8.87;;;7.97;;
92;SDS011;16232;48.800;9.002;2023-02-28T09:41:14;9.93;;;7.30;;
92;SDS011;16232;48.800;9.002;2023-02-28T09:43:44;12.20;;;8.30;;
92;SDS011;16232;48.800;9.002;2023-02-28T09:46:15;14.23;;;8.27;;
92;SDS011;16232;48.800;9.002;2023-02-28T09:48:45;10.30;;;8.23;;
92;SDS011;16232;48.800;9.002;2023-02-28T09:51:15;9.90;;;8.00;;
92;SDS011;16232;48.800;9.002;2023-02-28T09:53:52;10.87;;;8.10;;
92;SDS011;16232;48.800;9.002;2023-02-28T09:56:20;11.53;;;8.30;;
92;SDS011;16232;48.800;9.002;2023-02-28T09:58:53;10.00;;;8.40;;
92;SDS011;16232;48.800;9.002;2023-02-28T10:01:23;11.17;;;7.97;;
92;SDS011;16232;48.800;9.002;2023-02-28T10:03:54;13.80;;;8.53;;
92;SDS011;16232;48.800;9.002;2023-02-28T10:06:26;9.57;;;8.33;;
92;SDS011;16232;48.800;9.002;2023-02-28T10:09:02;8.83;;;7.80;;
92;SDS011;16232;48.800;9.002;2023-02-28T10:11:42;10.23;;;8.23;;
92;SDS011;16232;48.800;9.002;2023-02-28T10:14:13;14.30;;;8.87;;
92;SDS011;16232;48.800;9.002;2023-02-28T10:16:43;13.43;;;9.00;;
92;SDS011;16232;48.800;9.002;2023-02-28T10:19:18;10.47;;;8.87;;
92;SDS011;16232;48.800;9.002;2023-02-28T10:21:47;12.43;;;9.27;;
92;SDS011;16232;48.800;9.002;2023-02-28T10:24:21;11.03;;;8.33;;
92;SDS011;16232;48.800;9.002;2023-02-28T10:26:50;12.10;;;9.67;;
92;SDS011;16232;48.800;9.002;2023-02-28T10:29:19;12.10;;;8.60;;
92;SDS011;16232;48.800;9.002;2023-02-28T10:31:46;11.50;;;8.80;;
92;SDS011;16232;48.800;9.002;2023-02-28T10:34:14;10.10;;;8.60;;
92;SDS011;16232;48.800;9.002;2023-02-28T10:36:41;10.43;;;8.30;;
92;SDS011;16232;48.800;9.002;2023-02-28T10:41:57;9.67;;;8.60;;
92;SDS011;16232;48.800;9.002;2023-02-28T10:44:25;10.30;;;8.03;;
92;SDS011;16232;48.800;9.002;2023-02-28T10:46:52;10.17;;;8.63;;
92;SDS011;16232;48.800;9.002;2023-02-28T10:49:20;10.63;;;8.23;;
92;SDS011;16232;48.800;9.002;2023-02-28T10:51:49;8.90;;;7.83;;
92;SDS011;16232;48.800;9.002;2023-02-28T10:54:18;10.17;;;8.47;;
92;SDS011;16232;48.800;9.002;2023-02-28T10:56:46;11.67;;;9.27;;
92;SDS011;16232;48.800;9.002;2023-02-28T10:59:33;9.43;;;7.87;;
92;SDS011;16232;48.800;9.002;2023-02-28T11:02:01;9.53;;;8.07;;
92;SDS011;16232;48.800;9.002;2023-02-28T11:04:33;10.27;;;8.87;;
92;SDS011;16232;48.800;9.002;2023-02-28T11:07:04;10.93;;;9.13;;
92;SDS011;16232;48.800;9.002;2023-02-28T11:09:33;10.87;;;8.77;;
92;SDS011;16232;48.800;9.002;2023-02-28T11:12:01;9.40;;;8.40;;
92;SDS011;16232;48.800;9.002;2023-02-28T11:14:30;9.77;;;8.07;;
92;SDS011;16232;48.800;9.002;2023-02-28T11:17:02;10.93;;;8.60;;
92;SDS011;16232;48.800;9.002;2023-02-28T11:19:31;10.20;;;8.63;;
92;SDS011;16232;48.800;9.002;2023-02-28T11:22:02;9.10;;;8.20;;
92;SDS011;16232;48.800;9.002;2023-02-28T11:24:31;8.83;;;7.97;;
92;SDS011;16232;48.800;9.002;2023-02-28T11:27:00;9.60;;;7.93;;
92;SDS011;16232;48.800;9.002;2023-02-28T11:29:28;8.20;;;7.40;;
92;SDS011;16232;48.800;9.002;2023-02-28T11:32:07;9.13;;;8.23;;
92;SDS011;16232;48.800;9.002;2023-02-28T11:34:38;8.70;;;7.57;;
92;SDS011;16232;48.800;9.002;2023-02-28T11:37:09;8.77;;;7.93;;
92;SDS011;16232;48.800;9.002;2023-02-28T11:39:37;9.20;;;8.30;;
92;SDS011;16232;48.800;9.002;2023-02-28T11:42:15;10.23;;;8.50;;
92;SDS011;16232;48.800;9.002;2023-02-28T11:44:50;9.47;;;8.47;;
92;SDS011;16232;48.800;9.002;2023-02-28T11:47:24;8.50;;;7.63;;
92;SDS011;16232;48.800;9.002;2023-02-28T11:49:59;9.50;;;8.43;;
92;SDS011;16232;48.800;9.002;2023-02-28T11:52:34;9.93;;;8.33;;
92;SDS011;16232;48.800;9.002;2023-02-28T11:55:07;9.93;;;8.83;;
92;SDS011;16232;48.800;9.002;2023-02-28T11:57:45;12.00;;;9.23;;
92;SDS011;16232;48.800;9.002;2023-02-28T12:00:19;9.17;;;8.27;;
92;SDS011;16232;48.800;9.002;2023-02-28T12:02:58;9.87;;;8.07;;
92;SDS011;16232;48.800;9.002;2023-02-28T12:05:28;9.20;;;8.37;;
92;SDS011;16232;48.800;9.002;2023-02-28T12:08:06;9.00;;;8.10;;
92;SDS011;16232;48.800;9.002;2023-02-28T12:10:36;9.53;;;8.50;;
92;SDS011;16232;48.800;9.002;2023-02-28T12:13:08;9.70;;;8.70;;
92;SDS011;16232;48.800;9.002;2023-02-28T12:15:43;9.20;;;8.30;;
92;SDS011;16232;48.800;9.002;2023-02-28T12:18:23;9.23;;;8.20;;
92;SDS011;16232;48.800;9.002;2023-02-28T12:20:53;8.60;;;7.80;;
92;SDS011;16232;48.800;9.002;2023-02-28T12:23:26;8.67;;;7.77;;
92;SDS011;16232;48.800;9.002;2023-02-28T12:26:06;9.17;;;8.20;;
92;SDS011;16232;48.800;9.002;2023-02-28T12:28:36;10.20;;;7.90;;
92;SDS011;16232;48.800;9.002;2023-02-28T12:31:06;8.23;;;7.33;;
92;SDS011;16232;48.800;9.002;2023-02-28T12:33:38;8.00;;;7.23;;
92;SDS011;16232;48.800;9.002;2023-02-28T12:36:09;8.47;;;7.60;;
92;SDS011;16232;48.800;9.002;2023-02-28T12:38:38;9.00;;;8.10;;
92;SDS011;16232;48.800;9.002;2023-02-28T12:41:09;9.40;;;8.50;;
92;SDS011;16232;48.800;9.002;2023-02-28T12:43:40;8.20;;;7.40;;
92;SDS011;16232;48.800;9.002;2023-02-28T12:46:09;8.40;;;7.23;;
92;SDS011;16232;48.800;9.002;2023-02-28T12:48:40;8.23;;;7.40;;
92;SDS011;16232;48.800;9.002;2023-02-28T12:51:09;8.73;;;7.83;;
92;SDS011;16232;48.800;9.002;2023-02-28T12:53:41;8.47;;;7.43;;
92;SDS011;16232;48.800;9.002;2023-02-28T12:56:12;8.17;;;6.70;;
92;SDS011;16232;48.800;9.002;2023-02-28T12:58:43;8.67;;;7.77;;
92;SDS011;16232;48.800;9.002;2023-02-28T13:01:18;7.93;;;7.10;;
92;SDS011;16232;48.800;9.002;2023-02-28T13:06:41;9.20;;;8.07;;
92;SDS011;16232;48.800;9.002;2023-02-28T13:09:12;8.23;;;7.27;;
92;SDS011;16232;48.800;9.002;2023-02-28T13:11:42;7.97;;;7.17;;
92;SDS011;16232;48.800;9.002;2023-02-28T13:14:19;9.70;;;7.80;;
92;SDS011;16232;48.800;9.002;2023-02-28T13:16:58;9.27;;;7.67;;
92;SDS011;16232;48.800;9.002;2023-02-28T13:19:26;7.57;;;6.87;;
92;SDS011;16232;48.800;9.002;2023-02-28T13:21:56;8.87;;;7.40;;
92;SDS011;16232;48.800;9.002;2023-02-28T13:29:58;8.60;;;7.80;;
92;SDS011;16232;48.800;9.002;2023-02-28T13:32:29;9.27;;;8.27;;
92;SDS011;16232;48.800;9.002;2023-02-28T13:37:46;8.40;;;7.60;;
92;SDS011;16232;48.800;9.002;2023-02-28T13:40:27;8.07;;;7.27;;
92;SDS011;16232;48.800;9.002;2023-02-28T13:42:55;8.77;;;7.73;;
92;SDS011;16232;48.800;9.002;2023-02-28T13:45:24;8.30;;;7.50;;
92;SDS011;16232;48.800;9.002;2023-02-28T13:47:52;8.83;;;8.00;;
92;SDS011;16232;48.800;9.002;2023-02-28T13:50:21;8.77;;;7.83;;
92;SDS011;16232;48.800;9.002;2023-02-28T13:52:53;7.63;;;6.90;;
92;SDS011;16232;48.800;9.002;2023-02-28T13:55:27;7.97;;;7.17;;
92;SDS011;16232;48.800;9.002;2023-02-28T13:58:09;7.93;;;7.20;;
92;SDS011;16232;48.800;9.002;2023-02-28T14:00:44;8.63;;;7.57;;
92;SDS011;16232;48.800;9.002;2023-02-28T14:03:20;7.57;;;6.83;;
92;SDS011;16232;48.800;9.002;2023-02-28T14:08:34;7.80;;;7.10;;
92;SDS011;16232;48.800;9.002;2023-02-28T14:11:03;8.23;;;7.37;;
92;SDS011;16232;48.800;9.002;2023-02-28T14:13:38;8.23;;;7.40;;
92;SDS011;16232;48.800;9.002;2023-02-28T14:16:09;8.00;;;7.20;;
92;SDS011;16232;48.800;9.002;2023-02-28T14:18:39;8.93;;;7.93;;
92;SDS011;16232;48.800;9.002;2023-02-28T14:21:09;9.00;;;7.57;;
92;SDS011;16232;48.800;9.002;2023-02-28T14:23:49;8.33;;;7.63;;
92;SDS011;16232;48.800;9.002;2023-02-28T14:29:19;8.20;;;7.40;;
92;SDS011;16232;48.800;9.002;2023-02-28T14:31:53;8.40;;;7.60;;
92;SDS011;16232;48.800;9.002;2023-02-28T14:34:27;8.10;;;7.30;;
92;SDS011;16232;48.800;9.002;2023-02-28T14:36:59;8.73;;;7.13;;
92;SDS011;16232;48.800;9.002;2023-02-28T14:39:28;8.83;;;7.87;;
92;SDS011;16232;48.800;9.002;2023-02-28T14:41:58;7.87;;;6.80;;
92;SDS011;16232;48.800;9.002;2023-02-28T14:44:28;9.27;;;8.33;;
92;SDS011;16232;48.800;9.002;2023-02-28T14:46:56;8.67;;;7.60;;
92;SDS011;16232;48.800;9.002;2023-02-28T14:49:26;8.97;;;7.90;;
92;SDS011;16232;48.800;9.002;2023-02-28T14:52:01;9.43;;;8.03;;
92;SDS011;16232;48.800;9.002;2023-02-28T14:54:30;15.10;;;8.70;;
92;SDS011;16232;48.800;9.002;2023-02-28T14:56:58;12.23;;;8.37;;
92;SDS011;16232;48.800;9.002;2023-02-28T14:59:27;10.20;;;8.00;;
92;SDS011;16232;48.800;9.002;2023-02-28T15:04:41;11.63;;;8.50;;
92;SDS011;16232;48.800;9.002;2023-02-28T15:07:09;10.00;;;7.93;;
92;SDS011;16232;48.800;9.002;2023-02-28T15:09:38;12.20;;;9.23;;
92;SDS011;16232;48.800;9.002;2023-02-28T15:12:05;10.63;;;9.00;;
92;SDS011;16232;48.800;9.002;2023-02-28T15:14:33;12.13;;;9.53;;
92;SDS011;16232;48.800;9.002;2023-02-28T15:17:05;11.00;;;8.97;;
92;SDS011;16232;48.800;9.002;2023-02-28T15:19:34;10.57;;;8.60;;
92;SDS011;16232;48.800;9.002;2023-02-28T15:22:04;9.87;;;8.83;;
92;SDS011;16232;48.800;9.002;2023-02-28T15:24:35;10.80;;;9.20;;
92;SDS011;16232;48.800;9.002;2023-02-28T15:27:06;11.00;;;8.80;;
92;SDS011;16232;48.800;9.002;2023-02-28T15:29:36;9.20;;;8.27;;
92;SDS011;16232;48.800;9.002;2023-02-28T15:32:19;11.00;;;8.00;;
92;SDS011;16232;48.800;9.002;2023-02-28T15:34:48;13.53;;;9.00;;
92;SDS011;16232;48.800;9.002;2023-02-28T15:37:26;11.00;;;8.87;;
92;SDS011;16232;48.800;9.002;2023-02-28T15:39:56;9.27;;;8.30;;
92;SDS011;16232;48.800;9.002;2023-02-28T15:42:27;11.37;;;8.93;;
92;SDS011;16232;48.800;9.002;2023-02-28T15:44:56;9.80;;;7.97;;
92;SDS011;16232;48.800;9.002;2023-02-28T15:47:25;10.27;;;8.83;;
92;SDS011;16232;48.800;9.002;2023-02-28T15:49:54;9.77;;;8.57;;
92;SDS011;16232;48.800;9.002;2023-02-28T15:52:24;12.93;;;8.50;;
92;SDS011;16232;48.800;9.002;2023-02-28T15:54:53;11.73;;;8.83;;
92;SDS011;16232;48.800;9.002;2023-02-28T15:57:21;11.27;;;9.37;;
92;SDS011;16232;48.800;9.002;2023-02-28T15:59:51;9.80;;;8.63;;
92;SDS011;16232;48.800;9.002;2023-02-28T16:02:20;8.73;;;7.83;;
92;SDS011;16232;48.800;9.002;2023-02-28T16:04:55;9.43;;;8.43;;
92;SDS011;16232;48.800;9.002;2023-02-28T16:07:22;10.77;;;8.33;;
92;SDS011;16232;48.800;9.002;2023-02-28T16:09:50;11.37;;;8.40;;
92;SDS011;16232;48.800;9.002;2023-02-28T16:12:18;10.00;;;8.43;;
92;SDS011;16232;48.800;9.002;2023-02-28T16:14:46;11.57;;;9.50;;
92;SDS011;16232;48.800;9.002;2023-02-28T16:17:16;11.03;;;9.10;;
92;SDS011;16232;48.800;9.002;2023-02-28T16:19:46;10.13;;;8.50;;